Time;durP1;ratioP1;P1;durP2;ratioP2;P2;SDS_P1;SDS_P2;PMS_P1;PMS_P2;Temp;Humidity;BMP_temperature;BMP_pressure;BME280_temperature;BME280_humidity;BME280_pressure;Samples;Min_cycle;Max_cycle;Signal;HPM_P1;HPM_P2
2023/09/05 00:01:54;0.00;0.00;0.62;0.00;0.00;0.62;2.83;2.57;;;29.60;28.20;;;;;;2267088;61;20802;-59
2023/09/05 00:04:39;0.00;0.00;0.62;0.00;0.00;0.62;4.23;2.70;;;29.50;28.70;;;;;;2266809;61;20384;-55
2023/09/05 00:07:27;0.00;0.00;0.62;0.00;0.00;0.62;3.60;2.70;;;29.50;28.10;;;;;;2267223;61;20367;-55
2023/09/05 00:10:13;0.00;0.00;0.62;0.00;0.00;0.62;4.30;3.00;;;29.50;28.10;;;;;;2267116;61;20360;-55
2023/09/05 00:12:57;0.00;0.00;0.62;0.00;0.00;0.62;4.70;2.83;;;29.50;28.20;;;;;;2267084;61;20406;-56
2023/09/05 00:15:42;0.00;0.00;0.62;0.00;0.00;0.62;3.67;3.10;;;29.50;28.10;;;;;;2267018;61;20387;-57
2023/09/05 00:18:27;0.00;0.00;0.62;0.00;0.00;0.62;3.80;3.13;;;29.50;28.20;;;;;;2266633;61;20468;-60
2023/09/05 00:21:18;0.00;0.00;0.62;0.00;0.00;0.62;3.40;3.10;;;29.50;28.20;;;;;;2267057;61;20864;-55
2023/09/05 00:24:27;0.00;0.00;0.62;0.00;0.00;0.62;3.80;3.17;;;29.50;28.20;;;;;;2266258;61;20901;-55
2023/09/05 00:27:13;0.00;0.00;0.62;0.00;0.00;0.62;3.80;2.77;;;29.50;28.20;;;;;;2267391;61;20758;-52
2023/09/05 00:29:58;0.00;0.00;0.62;0.00;0.00;0.62;3.33;2.40;;;29.50;28.20;;;;;;2267049;61;20384;-54
2023/09/05 00:32:42;0.00;0.00;0.62;0.00;0.00;0.62;2.90;2.47;;;29.40;28.20;;;;;;2264827;61;20845;-58
2023/09/05 00:35:29;0.00;0.00;0.62;0.00;0.00;0.62;4.10;3.17;;;29.50;28.30;;;;;;2264673;61;20442;-59
2023/09/05 00:38:13;0.00;0.00;0.62;0.00;0.00;0.62;3.50;3.00;;;29.40;28.30;;;;;;2265858;61;20438;-57
2023/09/05 00:41:02;0.00;0.00;0.62;0.00;0.00;0.62;3.00;2.37;;;29.40;28.30;;;;;;2265144;61;20495;-59
2023/09/05 00:43:49;0.00;0.00;0.62;0.00;0.00;0.62;5.70;2.93;;;29.40;28.30;;;;;;2265468;61;20384;-58
2023/09/05 00:46:33;0.00;0.00;0.62;0.00;0.00;0.62;4.00;2.40;;;29.40;28.30;;;;;;2266062;61;20363;-57
2023/09/05 00:49:22;0.00;0.00;0.62;0.00;0.00;0.62;3.73;2.63;;;29.40;28.40;;;;;;2267061;61;20367;-57
2023/09/05 00:52:10;0.00;0.00;0.62;0.00;0.00;0.62;3.67;2.30;;;29.40;28.40;;;;;;2266631;61;20360;-56
2023/09/05 00:54:55;0.00;0.00;0.62;0.00;0.00;0.62;3.93;3.03;;;29.40;28.40;;;;;;2266791;61;20442;-56
2023/09/05 00:57:41;0.00;0.00;0.62;0.00;0.00;0.62;2.60;2.13;;;29.40;28.40;;;;;;2266432;61;20396;-56
2023/09/05 01:00:27;0.00;0.00;0.62;0.00;0.00;0.62;3.47;2.83;;;29.40;28.40;;;;;;2267062;61;20507;-55
2023/09/05 01:03:11;0.00;0.00;0.62;0.00;0.00;0.62;4.00;3.00;;;29.40;28.40;;;;;;2266673;61;20920;-56
2023/09/05 01:06:02;0.00;0.00;0.62;0.00;0.00;0.62;3.60;2.93;;;29.40;28.40;;;;;;2266499;61;20523;-57
2023/09/05 01:08:57;0.00;0.00;0.62;0.00;0.00;0.62;3.40;3.07;;;29.30;28.30;;;;;;2266902;61;20441;-55
2023/09/05 01:11:43;0.00;0.00;0.62;0.00;0.00;0.62;2.90;2.60;;;29.30;28.40;;;;;;2266780;61;20678;-56
2023/09/05 01:14:29;0.00;0.00;0.62;0.00;0.00;0.62;3.20;2.80;;;29.30;28.30;;;;;;2266253;61;20789;-57
2023/09/05 01:17:14;0.00;0.00;0.62;0.00;0.00;0.62;3.73;2.50;;;29.30;28.40;;;;;;2266976;61;20391;-58
2023/09/05 01:20:03;0.00;0.00;0.62;0.00;0.00;0.62;3.23;2.93;;;29.30;28.40;;;;;;2266434;61;20412;-57
2023/09/05 01:22:58;0.00;0.00;0.62;0.00;0.00;0.62;3.13;2.63;;;29.30;28.40;;;;;;2266247;61;20375;-56
2023/09/05 01:25:45;0.00;0.00;0.62;0.00;0.00;0.62;2.80;2.53;;;29.30;29.00;;;;;;2266459;61;20705;-55
2023/09/05 01:28:35;0.00;0.00;0.62;0.00;0.00;0.62;2.80;2.53;;;29.30;28.40;;;;;;2266580;61;20769;-53
2023/09/05 01:31:21;0.00;0.00;0.62;0.00;0.00;0.62;3.67;2.90;;;29.30;28.40;;;;;;2266695;61;20410;-59
2023/09/05 01:34:06;0.00;0.00;0.62;0.00;0.00;0.62;3.10;2.80;;;29.30;28.40;;;;;;2266444;61;20356;-56
2023/09/05 01:36:50;0.00;0.00;0.62;0.00;0.00;0.62;5.70;2.80;;;29.30;28.40;;;;;;2302819;57;20364;-56
2023/09/05 01:39:36;0.00;0.00;0.62;0.00;0.00;0.62;4.03;2.77;;;29.20;28.40;;;;;;2266063;61;20395;-59
2023/09/05 01:42:21;0.00;0.00;0.62;0.00;0.00;0.62;2.97;2.63;;;29.20;28.40;;;;;;2266084;61;20375;-55
2023/09/05 01:45:07;0.00;0.00;0.62;0.00;0.00;0.62;3.43;2.63;;;29.20;28.40;;;;;;2262261;61;20485;-58
2023/09/05 01:47:51;0.00;0.00;0.62;0.00;0.00;0.62;3.20;2.90;;;29.20;28.40;;;;;;2262486;61;20377;-58
2023/09/05 01:50:37;0.00;0.00;0.62;0.00;0.00;0.62;4.00;2.70;;;29.20;28.40;;;;;;2263036;61;20373;-54
2023/09/05 01:53:21;0.00;0.00;0.62;0.00;0.00;0.62;3.50;2.23;;;29.20;28.40;;;;;;2267972;58;20379;-58
2023/09/05 01:56:06;0.00;0.00;0.62;0.00;0.00;0.62;2.93;2.60;;;29.20;28.40;;;;;;2266322;61;20383;-57
2023/09/05 01:58:51;0.00;0.00;0.62;0.00;0.00;0.62;3.13;2.60;;;29.20;28.40;;;;;;2266209;61;20929;-54
2023/09/05 02:01:36;0.00;0.00;0.62;0.00;0.00;0.62;2.90;2.60;;;29.20;28.40;;;;;;2266245;61;20466;-54
2023/09/05 02:04:20;0.00;0.00;0.62;0.00;0.00;0.62;2.70;2.27;;;29.20;28.40;;;;;;2266014;61;20384;-55
2023/09/05 02:07:08;0.00;0.00;0.62;0.00;0.00;0.62;2.90;2.13;;;29.10;28.40;;;;;;2266499;61;20395;-55
2023/09/05 02:09:53;0.00;0.00;0.62;0.00;0.00;0.62;3.20;2.90;;;29.10;28.40;;;;;;2266417;61;20360;-56
2023/09/05 02:12:38;0.00;0.00;0.62;0.00;0.00;0.62;4.17;2.40;;;29.10;28.40;;;;;;2266692;61;20414;-58
2023/09/05 02:15:24;0.00;0.00;0.62;0.00;0.00;0.62;2.77;2.50;;;29.10;28.50;;;;;;2266120;61;20379;-59
2023/09/05 02:18:10;0.00;0.00;0.62;0.00;0.00;0.62;3.57;2.17;;;29.10;28.50;;;;;;2266237;61;20790;-59
2023/09/05 02:20:57;0.00;0.00;0.62;0.00;0.00;0.62;2.33;2.13;;;29.10;28.50;;;;;;2266584;61;20363;-53
2023/09/05 02:23:42;0.00;0.00;0.62;0.00;0.00;0.62;2.67;2.20;;;29.10;29.00;;;;;;2265873;61;20388;-58
2023/09/05 02:26:27;0.00;0.00;0.62;0.00;0.00;0.62;2.90;2.50;;;29.10;28.50;;;;;;2265924;61;20360;-56
2023/09/05 02:29:12;0.00;0.00;0.62;0.00;0.00;0.62;4.20;2.80;;;29.10;28.50;;;;;;2266904;61;20396;-58
2023/09/05 02:31:58;0.00;0.00;0.62;0.00;0.00;0.62;2.83;2.30;;;29.10;28.50;;;;;;2266256;61;20371;-57
2023/09/05 02:34:42;0.00;0.00;0.62;0.00;0.00;0.62;3.17;2.33;;;29.00;28.20;;;;;;2266149;61;20391;-56
2023/09/05 02:37:27;0.00;0.00;0.62;0.00;0.00;0.62;2.90;2.57;;;29.00;28.40;;;;;;2266600;61;20395;-58
2023/09/05 02:40:13;0.00;0.00;0.62;0.00;0.00;0.62;3.20;2.37;;;29.00;28.40;;;;;;2266794;61;20407;-59
2023/09/05 02:42:57;0.00;0.00;0.62;0.00;0.00;0.62;3.03;2.27;;;29.00;28.50;;;;;;2266765;61;20368;-56
2023/09/05 02:45:51;0.00;0.00;0.62;0.00;0.00;0.62;3.23;2.73;;;29.00;28.50;;;;;;2266367;61;20415;-56
2023/09/05 02:48:39;0.00;0.00;0.62;0.00;0.00;0.62;3.47;2.53;;;29.00;28.50;;;;;;2266040;61;20356;-57
2023/09/05 02:51:23;0.00;0.00;0.62;0.00;0.00;0.62;2.70;2.30;;;29.00;28.50;;;;;;2266138;61;20373;-58
2023/09/05 02:54:08;0.00;0.00;0.62;0.00;0.00;0.62;2.70;2.40;;;29.00;28.50;;;;;;2266149;61;20403;-55
2023/09/05 02:56:54;0.00;0.00;0.62;0.00;0.00;0.62;2.83;2.50;;;29.00;28.50;;;;;;2266345;61;20360;-57
2023/09/05 02:59:39;0.00;0.00;0.62;0.00;0.00;0.62;3.73;2.30;;;28.90;28.50;;;;;;2266170;61;20933;-57
2023/09/05 03:02:25;0.00;0.00;0.62;0.00;0.00;0.62;3.27;2.50;;;28.90;28.50;;;;;;2266400;61;20368;-58
2023/09/05 03:05:11;0.00;0.00;0.62;0.00;0.00;0.62;2.93;2.43;;;28.90;28.50;;;;;;2265853;61;20925;-51
2023/09/05 03:07:57;0.00;0.00;0.62;0.00;0.00;0.62;2.73;2.30;;;28.90;28.50;;;;;;2263494;61;20364;-56
2023/09/05 03:10:42;0.00;0.00;0.62;0.00;0.00;0.62;3.13;2.70;;;28.90;28.50;;;;;;2265998;61;20383;-56
2023/09/05 03:13:26;0.00;0.00;0.62;0.00;0.00;0.62;4.23;2.30;;;28.90;28.50;;;;;;2265948;61;20408;-59
2023/09/05 03:16:12;0.00;0.00;0.62;0.00;0.00;0.62;2.50;2.30;;;28.90;28.50;;;;;;2265929;61;20384;-59
2023/09/05 03:18:59;0.00;0.00;0.62;0.00;0.00;0.62;2.90;2.23;;;28.90;28.50;;;;;;2266603;61;20453;-58
2023/09/05 03:21:45;0.00;0.00;0.62;0.00;0.00;0.62;3.37;2.57;;;28.90;28.60;;;;;;2266007;61;20365;-57
2023/09/05 03:24:30;0.00;0.00;0.62;0.00;0.00;0.62;2.60;2.27;;;28.90;28.60;;;;;;2266298;61;20388;-60
2023/09/05 03:27:15;0.00;0.00;0.62;0.00;0.00;0.62;3.00;2.70;;;28.90;28.60;;;;;;2266640;61;20344;-58
2023/09/05 03:29:59;0.00;0.00;0.62;0.00;0.00;0.62;5.90;2.33;;;28.90;28.60;;;;;;2266018;61;20499;-58
2023/09/05 03:32:44;0.00;0.00;0.62;0.00;0.00;0.62;5.03;2.50;;;28.90;28.60;;;;;;2265895;61;20839;-58
2023/09/05 03:35:28;0.00;0.00;0.62;0.00;0.00;0.62;3.00;2.43;;;28.90;28.60;;;;;;2265607;61;20840;-57
2023/09/05 03:38:14;0.00;0.00;0.62;0.00;0.00;0.62;2.53;2.17;;;28.80;29.10;;;;;;2266551;61;20614;-59
2023/09/05 03:40:59;0.00;0.00;0.62;0.00;0.00;0.62;3.03;2.57;;;28.80;28.50;;;;;;2266568;61;20468;-54
2023/09/05 03:43:43;0.00;0.00;0.62;0.00;0.00;0.62;3.93;2.10;;;28.80;28.50;;;;;;2265890;61;20924;-58
2023/09/05 03:46:28;0.00;0.00;0.62;0.00;0.00;0.62;3.67;2.77;;;28.80;28.50;;;;;;2266307;61;20459;-54
2023/09/05 03:49:12;0.00;0.00;0.62;0.00;0.00;0.62;2.77;2.30;;;28.80;28.50;;;;;;2266421;61;20381;-54
2023/09/05 03:51:57;0.00;0.00;0.62;0.00;0.00;0.62;2.30;1.93;;;28.80;28.50;;;;;;2266143;61;20452;-58
2023/09/05 03:54:44;0.00;0.00;0.62;0.00;0.00;0.62;2.70;2.27;;;28.80;28.60;;;;;;2265570;61;20523;-58
2023/09/05 03:57:28;0.00;0.00;0.62;0.00;0.00;0.62;2.70;2.30;;;28.80;28.50;;;;;;2266261;61;20368;-58
2023/09/05 04:00:14;0.00;0.00;0.62;0.00;0.00;0.62;3.60;2.37;;;28.80;28.50;;;;;;2265928;61;20954;-56
2023/09/05 04:02:58;0.00;0.00;0.62;0.00;0.00;0.62;4.60;2.77;;;28.80;28.50;;;;;;2265841;61;20882;-55
2023/09/05 04:05:44;0.00;0.00;0.62;0.00;0.00;0.62;2.43;1.80;;;28.80;28.60;;;;;;2265724;61;20372;-57
2023/09/05 04:08:28;0.00;0.00;0.62;0.00;0.00;0.62;4.13;2.60;;;28.70;28.50;;;;;;2265322;61;20917;-54
2023/09/05 04:11:14;0.00;0.00;0.62;0.00;0.00;0.62;3.73;2.50;;;28.80;28.60;;;;;;2265565;61;20379;-54
2023/09/05 04:13:59;0.00;0.00;0.62;0.00;0.00;0.62;3.33;2.50;;;28.70;28.60;;;;;;2264714;61;20376;-57
2023/09/05 04:16:44;0.00;0.00;0.62;0.00;0.00;0.62;2.77;2.20;;;28.70;28.60;;;;;;2266186;61;20411;-54
2023/09/05 04:19:28;0.00;0.00;0.62;0.00;0.00;0.62;2.87;2.40;;;28.70;28.60;;;;;;2265770;61;20387;-54
2023/09/05 04:22:13;0.00;0.00;0.62;0.00;0.00;0.62;3.00;2.40;;;28.70;28.50;;;;;;2266215;61;20364;-57
2023/09/05 04:24:57;0.00;0.00;0.62;0.00;0.00;0.62;3.07;2.70;;;28.70;28.50;;;;;;2266218;61;20796;-56
2023/09/05 04:27:43;0.00;0.00;0.62;0.00;0.00;0.62;3.20;2.23;;;28.70;28.60;;;;;;2265950;61;20411;-55
2023/09/05 04:30:28;0.00;0.00;0.62;0.00;0.00;0.62;2.70;2.10;;;28.70;28.50;;;;;;2266037;61;20368;-55
2023/09/05 04:33:12;0.00;0.00;0.62;0.00;0.00;0.62;2.57;2.37;;;28.70;28.60;;;;;;2265589;61;20357;-58
2023/09/05 04:35:57;0.00;0.00;0.62;0.00;0.00;0.62;2.93;2.40;;;28.70;29.10;;;;;;2265891;61;20450;-57
2023/09/05 04:38:45;0.00;0.00;0.62;0.00;0.00;0.62;3.83;2.47;;;28.70;28.60;;;;;;2266857;61;20414;-56
2023/09/05 04:41:30;0.00;0.00;0.62;0.00;0.00;0.62;3.10;2.60;;;28.60;28.50;;;;;;2267136;61;20415;-54
2023/09/05 04:44:16;0.00;0.00;0.62;0.00;0.00;0.62;2.43;2.23;;;28.70;28.60;;;;;;2266116;61;20422;-53
2023/09/05 04:47:29;0.00;0.00;0.62;0.00;0.00;0.62;2.90;2.47;;;28.60;28.50;;;;;;2267126;61;20399;-54
2023/09/05 04:50:14;0.00;0.00;0.62;0.00;0.00;0.62;2.93;2.63;;;28.60;28.50;;;;;;2257534;61;20361;-54
2023/09/05 04:52:59;0.00;0.00;0.62;0.00;0.00;0.62;3.13;2.10;;;28.60;28.50;;;;;;2257828;61;20389;-58
2023/09/05 04:55:45;0.00;0.00;0.62;0.00;0.00;0.62;3.40;2.50;;;28.60;28.50;;;;;;2257784;61;20386;-56
2023/09/05 04:58:30;0.00;0.00;0.62;0.00;0.00;0.62;3.83;2.77;;;28.60;28.50;;;;;;2257942;61;20461;-56
2023/09/05 05:01:17;0.00;0.00;0.62;0.00;0.00;0.62;3.87;2.73;;;28.60;28.50;;;;;;2267148;61;20450;-54
2023/09/05 05:04:02;0.00;0.00;0.62;0.00;0.00;0.62;4.00;2.70;;;28.60;28.50;;;;;;2267189;61;20497;-56
2023/09/05 05:06:46;0.00;0.00;0.62;0.00;0.00;0.62;3.27;2.20;;;28.60;28.50;;;;;;2266965;61;20426;-58
2023/09/05 05:09:31;0.00;0.00;0.62;0.00;0.00;0.62;2.77;2.33;;;28.60;28.50;;;;;;2266931;61;20387;-57
2023/09/05 05:12:16;0.00;0.00;0.62;0.00;0.00;0.62;3.07;2.30;;;28.60;28.50;;;;;;2266819;61;20768;-53
2023/09/05 05:15:01;0.00;0.00;0.62;0.00;0.00;0.62;4.83;2.60;;;28.60;29.10;;;;;;2266874;61;20458;-59
2023/09/05 05:17:47;0.00;0.00;0.62;0.00;0.00;0.62;2.70;2.30;;;28.60;28.50;;;;;;2266857;61;20422;-55
2023/09/05 05:20:32;0.00;0.00;0.62;0.00;0.00;0.62;5.30;2.60;;;28.50;28.50;;;;;;2267002;61;20376;-57
2023/09/05 05:23:17;0.00;0.00;0.62;0.00;0.00;0.62;3.60;2.23;;;28.50;28.60;;;;;;2266675;61;20361;-54
2023/09/05 05:26:02;0.00;0.00;0.62;0.00;0.00;0.62;3.10;2.30;;;28.50;28.60;;;;;;2266606;61;20396;-53
2023/09/05 05:28:46;0.00;0.00;0.62;0.00;0.00;0.62;3.30;2.40;;;28.50;28.60;;;;;;2266755;61;20442;-53
2023/09/05 05:31:32;0.00;0.00;0.62;0.00;0.00;0.62;3.90;2.37;;;28.50;28.60;;;;;;2267219;61;20368;-58
2023/09/05 05:34:18;0.00;0.00;0.62;0.00;0.00;0.62;2.67;2.47;;;28.50;28.60;;;;;;2266402;61;20379;-56
2023/09/05 05:37:04;0.00;0.00;0.62;0.00;0.00;0.62;2.93;2.20;;;28.50;28.60;;;;;;2266987;61;20933;-53
2023/09/05 05:39:49;0.00;0.00;0.62;0.00;0.00;0.62;3.63;2.80;;;28.50;28.60;;;;;;2266497;61;20490;-54
2023/09/05 05:42:33;0.00;0.00;0.62;0.00;0.00;0.62;3.30;2.80;;;28.50;28.60;;;;;;2267067;61;20418;-57
2023/09/05 05:45:18;0.00;0.00;0.62;0.00;0.00;0.62;2.93;2.33;;;28.50;28.70;;;;;;2266222;61;21010;-56
2023/09/05 05:48:04;0.00;0.00;0.62;0.00;0.00;0.62;3.20;2.50;;;28.50;28.60;;;;;;2266910;61;20468;-59
2023/09/05 05:50:51;0.00;0.00;0.62;0.00;0.00;0.62;6.10;2.30;;;28.50;28.70;;;;;;2266448;61;20389;-56
2023/09/05 05:53:36;0.00;0.00;0.62;0.00;0.00;0.62;3.80;2.40;;;28.50;28.70;;;;;;2266336;61;21012;-57
2023/09/05 05:56:20;0.00;0.00;0.62;0.00;0.00;0.62;2.53;2.10;;;28.50;28.70;;;;;;2266674;61;20926;-54
2023/09/05 05:59:06;0.00;0.00;0.62;0.00;0.00;0.62;10.10;2.90;;;28.50;28.70;;;;;;2266691;61;20380;-54
2023/09/05 06:01:52;0.00;0.00;0.62;0.00;0.00;0.62;4.10;2.47;;;28.50;28.70;;;;;;2266772;61;20374;-57
2023/09/05 06:04:36;0.00;0.00;0.62;0.00;0.00;0.62;4.27;2.80;;;28.50;28.70;;;;;;2266221;61;20410;-56
2023/09/05 06:07:22;0.00;0.00;0.62;0.00;0.00;0.62;3.13;2.80;;;28.50;28.70;;;;;;2266892;61;20887;-58
2023/09/05 06:10:08;0.00;0.00;0.62;0.00;0.00;0.62;4.67;3.07;;;28.40;28.70;;;;;;2267065;61;20376;-56
2023/09/05 06:12:53;0.00;0.00;0.62;0.00;0.00;0.62;3.03;2.33;;;28.50;28.80;;;;;;2266511;61;20372;-58
2023/09/05 06:15:38;0.00;0.00;0.62;0.00;0.00;0.62;4.47;2.90;;;28.50;28.70;;;;;;2267123;61;20383;-57
2023/09/05 06:18:23;0.00;0.00;0.62;0.00;0.00;0.62;4.67;3.00;;;28.50;28.70;;;;;;2266352;61;20445;-56
2023/09/05 06:21:07;0.00;0.00;0.62;0.00;0.00;0.62;3.70;2.63;;;28.40;28.70;;;;;;2266709;61;20407;-55
2023/09/05 06:23:53;0.00;0.00;0.62;0.00;0.00;0.62;3.77;2.70;;;28.40;28.70;;;;;;2266610;61;20386;-55
2023/09/05 06:26:38;0.00;0.00;0.62;0.00;0.00;0.62;3.70;2.90;;;28.40;28.70;;;;;;2266617;61;20367;-59
2023/09/05 06:29:22;0.00;0.00;0.62;0.00;0.00;0.62;4.20;2.80;;;28.40;28.70;;;;;;2266607;61;20403;-58
2023/09/05 06:32:07;0.00;0.00;0.62;0.00;0.00;0.62;3.90;3.13;;;28.40;28.70;;;;;;2266985;61;20364;-57
2023/09/05 06:34:52;0.00;0.00;0.62;0.00;0.00;0.62;3.50;3.20;;;28.40;28.70;;;;;;2266073;61;20861;-57
2023/09/05 06:37:37;0.00;0.00;0.62;0.00;0.00;0.62;3.93;3.03;;;28.40;28.70;;;;;;2266812;61;20375;-56
2023/09/05 06:40:23;0.00;0.00;0.62;0.00;0.00;0.62;3.13;2.83;;;28.40;28.70;;;;;;2266875;61;20368;-56
2023/09/05 06:43:09;0.00;0.00;0.62;0.00;0.00;0.62;3.70;3.27;;;28.40;28.70;;;;;;2266589;61;20506;-59
2023/09/05 06:46:01;0.00;0.00;0.62;0.00;0.00;0.62;3.87;3.33;;;28.40;28.70;;;;;;2267132;61;20870;-54
2023/09/05 06:48:45;0.00;0.00;0.62;0.00;0.00;0.62;5.80;3.53;;;28.40;28.70;;;;;;2266934;61;20364;-57
2023/09/05 06:51:30;0.00;0.00;0.62;0.00;0.00;0.62;3.70;3.30;;;28.40;28.70;;;;;;2266244;61;20417;-55
2023/09/05 06:54:15;0.00;0.00;0.62;0.00;0.00;0.62;3.87;3.33;;;28.40;28.70;;;;;;2266444;61;20395;-54
2023/09/05 06:57:01;0.00;0.00;0.62;0.00;0.00;0.62;3.47;3.13;;;28.40;28.70;;;;;;2266098;61;20449;-56
2023/09/05 06:59:46;0.00;0.00;0.62;0.00;0.00;0.62;4.00;3.40;;;28.40;28.70;;;;;;2266646;61;20396;-53
2023/09/05 07:02:30;0.00;0.00;0.62;0.00;0.00;0.62;3.27;2.97;;;28.40;28.70;;;;;;2266596;61;20425;-54
2023/09/05 07:05:15;0.00;0.00;0.62;0.00;0.00;0.62;3.37;2.80;;;28.40;28.70;;;;;;2266170;61;20383;-59
2023/09/05 07:08:00;0.00;0.00;0.62;0.00;0.00;0.62;3.13;2.77;;;28.40;28.70;;;;;;2266839;61;20364;-56
2023/09/05 07:10:47;0.00;0.00;0.62;0.00;0.00;0.62;3.93;3.20;;;28.40;28.80;;;;;;2266115;61;20966;-59
2023/09/05 07:13:33;0.00;0.00;0.62;0.00;0.00;0.62;3.93;3.10;;;28.40;28.80;;;;;;2266280;61;20886;-58
2023/09/05 07:16:18;0.00;0.00;0.62;0.00;0.00;0.62;4.00;3.33;;;28.40;28.80;;;;;;2266588;61;20388;-55
2023/09/05 07:19:03;0.00;0.00;0.62;0.00;0.00;0.62;4.13;3.00;;;28.40;28.80;;;;;;2265855;61;20472;-59
2023/09/05 07:21:47;0.00;0.00;0.62;0.00;0.00;0.62;6.33;3.33;;;28.40;28.80;;;;;;2266247;61;20360;-56
2023/09/05 07:24:32;0.00;0.00;0.62;0.00;0.00;0.62;3.20;2.90;;;28.40;28.80;;;;;;2265958;61;20380;-56
2023/09/05 07:27:17;0.00;0.00;0.62;0.00;0.00;0.62;3.77;3.37;;;28.40;28.80;;;;;;2266207;61;20417;-58
2023/09/05 07:30:04;0.00;0.00;0.62;0.00;0.00;0.62;3.90;3.07;;;28.40;28.80;;;;;;2265971;61;20364;-57
2023/09/05 07:32:49;0.00;0.00;0.62;0.00;0.00;0.62;3.50;3.20;;;28.40;28.80;;;;;;2266034;61;20792;-59
2023/09/05 07:35:35;0.00;0.00;0.62;0.00;0.00;0.62;2.73;2.43;;;28.40;28.80;;;;;;2265405;61;20437;-54
2023/09/05 07:38:21;0.00;0.00;0.62;0.00;0.00;0.62;3.67;3.10;;;28.40;28.80;;;;;;2266237;61;20384;-58
2023/09/05 07:41:09;0.00;0.00;0.62;0.00;0.00;0.62;3.67;2.97;;;28.40;28.80;;;;;;2266284;61;20362;-57
2023/09/05 07:43:53;0.00;0.00;0.62;0.00;0.00;0.62;3.60;2.70;;;28.40;28.90;;;;;;2266290;61;20655;-58
2023/09/05 07:46:39;0.00;0.00;0.62;0.00;0.00;0.62;2.60;2.10;;;28.40;28.90;;;;;;2266033;61;20375;-57
2023/09/05 07:49:24;0.00;0.00;0.62;0.00;0.00;0.62;3.00;2.70;;;28.40;28.90;;;;;;2266584;61;20879;-59
2023/09/05 07:52:09;0.00;0.00;0.62;0.00;0.00;0.62;2.70;2.20;;;28.40;28.90;;;;;;2266621;61;20367;-56
2023/09/05 07:54:53;0.00;0.00;0.62;0.00;0.00;0.62;3.07;2.77;;;28.40;28.90;;;;;;2266068;61;20402;-56
2023/09/05 07:57:38;0.00;0.00;0.62;0.00;0.00;0.62;3.37;2.37;;;28.40;28.90;;;;;;2266556;61;20382;-55
2023/09/05 08:00:26;0.00;0.00;0.62;0.00;0.00;0.62;2.53;2.33;;;28.40;28.90;;;;;;2266821;61;20387;-53
2023/09/05 08:03:12;0.00;0.00;0.62;0.00;0.00;0.62;3.40;2.27;;;28.40;28.90;;;;;;2266367;61;20376;-56
2023/09/05 08:05:56;0.00;0.00;0.62;0.00;0.00;0.62;2.13;1.73;;;28.40;28.90;;;;;;2266594;61;20518;-56
2023/09/05 08:08:41;0.00;0.00;0.62;0.00;0.00;0.62;2.40;1.80;;;28.40;28.90;;;;;;2266681;61;20882;-54
2023/09/05 08:11:25;0.00;0.00;0.62;0.00;0.00;0.62;3.50;2.40;;;28.40;28.90;;;;;;2266286;61;20410;-59
2023/09/05 08:14:10;0.00;0.00;0.62;0.00;0.00;0.62;3.37;2.37;;;28.40;29.00;;;;;;2266908;61;20448;-59
2023/09/05 08:16:56;0.00;0.00;0.62;0.00;0.00;0.62;3.23;2.30;;;28.40;29.00;;;;;;2266643;61;20417;-59
2023/09/05 08:19:42;0.00;0.00;0.62;0.00;0.00;0.62;2.10;1.90;;;28.40;29.00;;;;;;2267244;61;20997;-57
2023/09/05 08:22:26;0.00;0.00;0.62;0.00;0.00;0.62;3.00;2.40;;;28.40;29.00;;;;;;2266528;61;20391;-57
2023/09/05 08:25:15;0.00;0.00;0.62;0.00;0.00;0.62;2.57;1.63;;;28.40;29.00;;;;;;2266607;61;20418;-56
2023/09/05 08:28:00;0.00;0.00;0.62;0.00;0.00;0.62;2.77;2.20;;;28.40;29.00;;;;;;2267169;61;20411;-57
2023/09/05 08:30:45;0.00;0.00;0.62;0.00;0.00;0.62;3.33;2.17;;;28.40;29.00;;;;;;2267204;61;20656;-58
2023/09/05 08:33:30;0.00;0.00;0.62;0.00;0.00;0.62;2.47;2.17;;;28.40;29.10;;;;;;2266310;61;20402;-56
2023/09/05 08:36:15;0.00;0.00;0.62;0.00;0.00;0.62;2.70;1.83;;;28.40;29.10;;;;;;2266768;61;20426;-56
2023/09/05 08:39:00;0.00;0.00;0.62;0.00;0.00;0.62;3.33;2.50;;;28.40;29.10;;;;;;2267354;61;20391;-56
2023/09/05 08:41:46;0.00;0.00;0.62;0.00;0.00;0.62;2.97;2.20;;;28.40;29.10;;;;;;2267069;61;20531;-54
2023/09/05 08:44:31;0.00;0.00;0.62;0.00;0.00;0.62;2.30;1.90;;;28.50;29.20;;;;;;2266496;61;20404;-57
2023/09/05 08:47:15;0.00;0.00;0.62;0.00;0.00;0.62;2.33;2.10;;;28.50;29.20;;;;;;2266398;61;20514;-53
2023/09/05 08:50:00;0.00;0.00;0.62;0.00;0.00;0.62;2.33;1.80;;;28.50;29.20;;;;;;2267243;61;20870;-57
2023/09/05 08:52:47;0.00;0.00;0.62;0.00;0.00;0.62;2.30;1.63;;;28.50;29.20;;;;;;2267025;61;20360;-57
2023/09/05 08:55:32;0.00;0.00;0.62;0.00;0.00;0.62;2.30;2.03;;;28.50;29.20;;;;;;2266474;61;20462;-55
2023/09/05 08:58:17;0.00;0.00;0.62;0.00;0.00;0.62;2.17;1.70;;;28.50;29.20;;;;;;2267365;61;20445;-57
2023/09/05 09:01:02;0.00;0.00;0.62;0.00;0.00;0.62;2.37;1.97;;;28.50;29.20;;;;;;2266541;61;20398;-55
2023/09/05 09:03:47;0.00;0.00;0.62;0.00;0.00;0.62;2.90;2.00;;;28.50;29.30;;;;;;2266203;61;20412;-54
2023/09/05 09:06:34;0.00;0.00;0.62;0.00;0.00;0.62;2.57;2.00;;;28.50;29.30;;;;;;2266577;61;20363;-55
2023/09/05 09:09:38;0.00;0.00;0.62;0.00;0.00;0.62;3.30;1.90;;;28.50;29.30;;;;;;2267083;61;20360;-52
2023/09/05 09:12:29;0.00;0.00;0.62;0.00;0.00;0.62;2.30;1.90;;;28.50;29.30;;;;;;2267253;61;20418;-58
2023/09/05 09:15:14;0.00;0.00;0.62;0.00;0.00;0.62;2.23;1.90;;;28.50;29.40;;;;;;2266591;61;20434;-53
2023/09/05 09:17:59;0.00;0.00;0.62;0.00;0.00;0.62;5.00;2.10;;;28.50;29.40;;;;;;2266751;61;20364;-50
2023/09/05 09:20:45;0.00;0.00;0.62;0.00;0.00;0.62;4.10;1.97;;;28.50;29.40;;;;;;2266785;61;20404;-56
2023/09/05 09:23:35;0.00;0.00;0.62;0.00;0.00;0.62;3.23;2.20;;;28.50;29.40;;;;;;2266353;61;20379;-59
2023/09/05 09:26:21;0.00;0.00;0.62;0.00;0.00;0.62;2.63;1.70;;;28.50;29.40;;;;;;2266756;61;20377;-58
2023/09/05 09:29:08;0.00;0.00;0.62;0.00;0.00;0.62;3.57;2.00;;;28.50;29.40;;;;;;2266832;61;20395;-56
2023/09/05 09:31:59;0.00;0.00;0.62;0.00;0.00;0.62;2.60;2.10;;;28.50;29.40;;;;;;2266579;61;20398;-55
2023/09/05 09:34:44;0.00;0.00;0.62;0.00;0.00;0.62;2.00;1.70;;;28.50;29.50;;;;;;2266733;61;20372;-56
2023/09/05 09:37:30;0.00;0.00;0.62;0.00;0.00;0.62;2.17;1.60;;;28.50;29.50;;;;;;2266935;61;20392;-55
2023/09/05 09:40:16;0.00;0.00;0.62;0.00;0.00;0.62;2.60;1.83;;;28.60;29.60;;;;;;2266865;61;20446;-57
2023/09/05 09:43:02;0.00;0.00;0.62;0.00;0.00;0.62;2.23;1.53;;;28.60;29.60;;;;;;2267051;61;20396;-55
2023/09/05 09:45:47;0.00;0.00;0.62;0.00;0.00;0.62;2.93;1.53;;;28.60;29.70;;;;;;2266717;61;20430;-57
2023/09/05 09:48:34;0.00;0.00;0.62;0.00;0.00;0.62;2.20;1.77;;;28.60;29.60;;;;;;2266860;61;20557;-56
2023/09/05 09:51:20;0.00;0.00;0.62;0.00;0.00;0.62;2.27;1.63;;;28.60;29.70;;;;;;2266607;61;20367;-59
2023/09/05 09:54:09;0.00;0.00;0.62;0.00;0.00;0.62;2.23;1.70;;;28.60;29.70;;;;;;2266239;61;20359;-54
2023/09/05 09:56:56;0.00;0.00;0.62;0.00;0.00;0.62;2.10;1.80;;;28.60;29.70;;;;;;2267194;61;20766;-58
2023/09/05 09:59:50;0.00;0.00;0.62;0.00;0.00;0.62;2.63;1.80;;;28.70;29.70;;;;;;2266685;61;20523;-59
2023/09/05 10:02:37;0.00;0.00;0.62;0.00;0.00;0.62;2.33;1.90;;;28.70;29.80;;;;;;2266714;61;20368;-56
2023/09/05 10:05:25;0.00;0.00;0.62;0.00;0.00;0.62;3.90;2.00;;;28.70;29.70;;;;;;2266355;61;20407;-56
2023/09/05 10:08:10;0.00;0.00;0.62;0.00;0.00;0.62;2.53;2.00;;;28.70;29.80;;;;;;2266155;61;20407;-58
2023/09/05 10:10:55;0.00;0.00;0.62;0.00;0.00;0.62;3.87;2.43;;;28.70;29.80;;;;;;2266343;61;20762;-54
2023/09/05 10:13:42;0.00;0.00;0.62;0.00;0.00;0.62;2.40;1.93;;;28.70;29.80;;;;;;2266570;61;20363;-55
2023/09/05 10:16:28;0.00;0.00;0.62;0.00;0.00;0.62;2.53;1.80;;;28.80;29.90;;;;;;2266526;61;20940;-57
2023/09/05 10:19:16;0.00;0.00;0.62;0.00;0.00;0.62;2.60;1.83;;;28.80;29.90;;;;;;2266259;61;20799;-55
2023/09/05 10:22:02;0.00;0.00;0.62;0.00;0.00;0.62;2.93;2.10;;;28.80;29.90;;;;;;2266427;61;20403;-60
2023/09/05 10:24:47;0.00;0.00;0.62;0.00;0.00;0.62;2.57;2.20;;;28.80;29.90;;;;;;2266191;61;20384;-58
2023/09/05 10:27:32;0.00;0.00;0.62;0.00;0.00;0.62;2.00;1.70;;;28.80;29.90;;;;;;2266652;61;20451;-59
2023/09/05 10:30:19;0.00;0.00;0.62;0.00;0.00;0.62;2.30;1.97;;;28.80;29.90;;;;;;2266889;61;20434;-55
2023/09/05 10:33:08;0.00;0.00;0.62;0.00;0.00;0.62;2.20;1.90;;;28.80;29.90;;;;;;2266560;61;20392;-55
2023/09/05 10:35:53;0.00;0.00;0.62;0.00;0.00;0.62;2.80;1.60;;;28.90;30.00;;;;;;2265643;61;20384;-56
2023/09/05 10:38:38;0.00;0.00;0.62;0.00;0.00;0.62;3.47;2.27;;;28.90;30.00;;;;;;2265842;61;20840;-57
2023/09/05 10:41:36;0.00;0.00;0.62;0.00;0.00;0.62;3.30;2.20;;;28.90;30.00;;;;;;2262812;61;20882;-59
2023/09/05 10:44:24;0.00;0.00;0.62;0.00;0.00;0.62;2.40;1.97;;;28.90;30.00;;;;;;2261752;61;20476;-59
2023/09/05 10:47:27;0.00;0.00;0.62;0.00;0.00;0.62;2.20;1.87;;;28.90;30.00;;;;;;2261998;61;20384;-56
2023/09/05 10:50:19;0.00;0.00;0.62;0.00;0.00;0.62;2.63;1.77;;;28.90;30.00;;;;;;2261886;61;20423;-59
2023/09/05 10:53:23;0.00;0.00;0.62;0.00;0.00;0.62;2.97;2.00;;;28.90;30.20;;;;;;2260894;61;20951;-56
2023/09/05 10:56:43;0.00;0.00;0.62;0.00;0.00;0.62;2.57;1.93;;;29.00;30.50;;;;;;2260740;61;20973;-55